sensor_id;sensor_type;location;lat;lon;timestamp;pressure;altitude;pressure_sealevel;temperature;humidity
23427;BME280;41148;45.420;10.952;2022-09-03T00:00:13;100626.66;;;21.66;53.46
23427;BME280;41148;45.420;10.952;2022-09-03T00:02:42;100627.75;;;21.63;53.15
23427;BME280;41148;45.420;10.952;2022-09-03T00:05:16;100619.81;;;21.60;53.55
23427;BME280;41148;45.420;10.952;2022-09-03T00:10:40;100615.31;;;21.48;53.59
23427;BME280;41148;45.420;10.952;2022-09-03T00:13:13;100622.16;;;21.54;53.46
23427;BME280;41148;45.420;10.952;2022-09-03T00:15:42;100629.13;;;21.45;53.66
23427;BME280;41148;45.420;10.952;2022-09-03T00:18:11;100632.22;;;21.52;53.44
23427;BME280;41148;45.420;10.952;2022-09-03T00:23:08;100639.91;;;21.58;53.27
23427;BME280;41148;45.420;10.952;2022-09-03T00:25:38;100637.81;;;21.61;53.05
23427;BME280;41148;45.420;10.952;2022-09-03T00:28:09;100634.53;;;21.69;53.17
23427;BME280;41148;45.420;10.952;2022-09-03T00:30:39;100639.56;;;21.62;53.51
23427;BME280;41148;45.420;10.952;2022-09-03T00:33:09;100641.34;;;21.51;54.45
23427;BME280;41148;45.420;10.952;2022-09-03T00:35:40;100637.00;;;21.48;54.10
23427;BME280;41148;45.420;10.952;2022-09-03T00:38:09;100639.41;;;21.53;53.84
23427;BME280;41148;45.420;10.952;2022-09-03T00:46:06;100645.78;;;21.52;53.97
23427;BME280;41148;45.420;10.952;2022-09-03T00:51:50;100638.84;;;21.48;54.06
23427;BME280;41148;45.420;10.952;2022-09-03T00:55:09;100640.69;;;21.47;53.68
23427;BME280;41148;45.420;10.952;2022-09-03T00:57:25;100646.13;;;21.47;53.96
23427;BME280;41148;45.420;10.952;2022-09-03T01:05:08;100652.66;;;21.45;54.18
23427;BME280;41148;45.420;10.952;2022-09-03T01:25:26;100654.44;;;21.57;55.72
23427;BME280;41148;45.420;10.952;2022-09-03T01:30:52;100644.19;;;21.73;54.66
23427;BME280;41148;45.420;10.952;2022-09-03T01:41:14;100649.06;;;21.68;55.20
23427;BME280;41148;45.420;10.952;2022-09-03T01:46:39;100646.13;;;21.71;55.42
23427;BME280;41148;45.420;10.952;2022-09-03T01:51:37;100649.25;;;21.78;55.69
23427;BME280;41148;45.420;10.952;2022-09-03T02:04:25;100660.91;;;21.43;58.98
23427;BME280;41148;45.420;10.952;2022-09-03T02:06:53;100658.19;;;21.30;59.62
23427;BME280;41148;45.420;10.952;2022-09-03T02:09:20;100658.94;;;21.20;59.53
23427;BME280;41148;45.420;10.952;2022-09-03T02:11:58;100661.88;;;21.29;59.38
23427;BME280;41148;45.420;10.952;2022-09-03T02:14:29;100651.81;;;21.31;58.82
23427;BME280;41148;45.420;10.952;2022-09-03T02:16:57;100659.69;;;21.22;59.51
23427;BME280;41148;45.420;10.952;2022-09-03T02:19:26;100644.66;;;21.30;59.17
23427;BME280;41148;45.420;10.952;2022-09-03T02:21:54;100656.00;;;21.23;59.79
23427;BME280;41148;45.420;10.952;2022-09-03T02:24:25;100657.09;;;21.20;59.54
23427;BME280;41148;45.420;10.952;2022-09-03T02:26:54;100658.44;;;21.14;60.17
23427;BME280;41148;45.420;10.952;2022-09-03T02:29:21;100652.16;;;21.14;60.36
23427;BME280;41148;45.420;10.952;2022-09-03T02:31:50;100654.00;;;21.13;59.59
23427;BME280;41148;45.420;10.952;2022-09-03T02:34:17;100656.13;;;21.21;60.16
23427;BME280;41148;45.420;10.952;2022-09-03T02:36:44;100648.03;;;21.34;59.49
23427;BME280;41148;45.420;10.952;2022-09-03T02:39:14;100656.13;;;21.21;58.80
23427;BME280;41148;45.420;10.952;2022-09-03T02:41:41;100643.16;;;21.26;58.71
23427;BME280;41148;45.420;10.952;2022-09-03T02:44:15;100653.41;;;21.21;59.33
23427;BME280;41148;45.420;10.952;2022-09-03T02:46:45;100655.06;;;21.24;59.34
23427;BME280;41148;45.420;10.952;2022-09-03T02:49:14;100658.69;;;21.48;58.64
23427;BME280;41148;45.420;10.952;2022-09-03T02:51:42;100665.84;;;21.49;58.56
23427;BME280;41148;45.420;10.952;2022-09-03T02:54:10;100661.09;;;21.40;58.99
23427;BME280;41148;45.420;10.952;2022-09-03T02:56:38;100655.59;;;21.03;60.79
23427;BME280;41148;45.420;10.952;2022-09-03T02:59:06;100671.78;;;20.79;62.06
23427;BME280;41148;45.420;10.952;2022-09-03T03:01:34;100663.75;;;20.65;63.28
23427;BME280;41148;45.420;10.952;2022-09-03T03:04:01;100666.38;;;20.67;63.76
23427;BME280;41148;45.420;10.952;2022-09-03T03:06:29;100670.81;;;20.80;62.91
23427;BME280;41148;45.420;10.952;2022-09-03T03:08:56;100672.00;;;20.89;63.09
23427;BME280;41148;45.420;10.952;2022-09-03T03:11:23;100672.00;;;20.89;63.01
23427;BME280;41148;45.420;10.952;2022-09-03T03:13:53;100676.97;;;20.82;63.13
23427;BME280;41148;45.420;10.952;2022-09-03T03:16:20;100675.16;;;20.96;62.80
23427;BME280;41148;45.420;10.952;2022-09-03T03:18:47;100680.34;;;20.99;62.51
23427;BME280;41148;45.420;10.952;2022-09-03T03:21:15;100680.47;;;20.84;63.28
23427;BME280;41148;45.420;10.952;2022-09-03T03:23:42;100676.44;;;20.90;62.92
23427;BME280;41148;45.420;10.952;2022-09-03T03:26:11;100683.59;;;21.04;62.65
23427;BME280;41148;45.420;10.952;2022-09-03T03:28:39;100690.09;;;20.89;63.05
23427;BME280;41148;45.420;10.952;2022-09-03T03:31:09;100681.19;;;20.99;63.06
23427;BME280;41148;45.420;10.952;2022-09-03T03:33:37;100679.34;;;21.00;63.04
23427;BME280;41148;45.420;10.952;2022-09-03T03:38:33;100689.44;;;20.85;64.01
23427;BME280;41148;45.420;10.952;2022-09-03T03:41:14;100686.31;;;20.78;64.38
23427;BME280;41148;45.420;10.952;2022-09-03T03:43:41;100679.34;;;21.00;63.15
23427;BME280;41148;45.420;10.952;2022-09-03T03:46:09;100684.97;;;20.84;63.79
23427;BME280;41148;45.420;10.952;2022-09-03T03:48:39;100672.56;;;20.94;63.01
23427;BME280;41148;45.420;10.952;2022-09-03T03:51:07;100673.72;;;21.03;63.17
23427;BME280;41148;45.420;10.952;2022-09-03T03:53:36;100664.41;;;21.07;62.73
23427;BME280;41148;45.420;10.952;2022-09-03T03:56:05;100662.13;;;21.01;62.80
23427;BME280;41148;45.420;10.952;2022-09-03T03:58:32;100654.50;;;21.19;61.75
23427;BME280;41148;45.420;10.952;2022-09-03T04:01:07;100662.63;;;21.19;61.42
23427;BME280;41148;45.420;10.952;2022-09-03T04:03:35;100660.03;;;21.17;61.37
23427;BME280;41148;45.420;10.952;2022-09-03T04:06:02;100650.19;;;21.16;61.66
23427;BME280;41148;45.420;10.952;2022-09-03T04:08:33;100645.25;;;20.97;62.21
23427;BME280;41148;45.420;10.952;2022-09-03T04:11:01;100659.22;;;21.04;61.77
23427;BME280;41148;45.420;10.952;2022-09-03T04:13:32;100661.72;;;20.94;62.18
23427;BME280;41148;45.420;10.952;2022-09-03T04:16:03;100657.59;;;20.89;62.74
23427;BME280;41148;45.420;10.952;2022-09-03T04:18:31;100651.63;;;20.96;62.73
23427;BME280;41148;45.420;10.952;2022-09-03T04:21:00;100645.88;;;21.01;62.37
23427;BME280;41148;45.420;10.952;2022-09-03T04:23:30;100646.66;;;20.90;62.79
23427;BME280;41148;45.420;10.952;2022-09-03T04:25:58;100648.06;;;20.83;62.95
23427;BME280;41148;45.420;10.952;2022-09-03T04:28:25;100644.06;;;20.89;62.94
23427;BME280;41148;45.420;10.952;2022-09-03T04:30:53;100642.22;;;20.89;62.98
23427;BME280;41148;45.420;10.952;2022-09-03T04:33:23;100638.09;;;20.83;63.63
23427;BME280;41148;45.420;10.952;2022-09-03T04:35:50;100637.34;;;20.94;63.35
23427;BME280;41148;45.420;10.952;2022-09-03T04:38:18;100630.06;;;20.82;63.35
23427;BME280;41148;45.420;10.952;2022-09-03T04:40:50;100640.50;;;20.75;63.75
23427;BME280;41148;45.420;10.952;2022-09-03T04:43:18;100641.78;;;20.70;64.26
23427;BME280;41148;45.420;10.952;2022-09-03T04:45:45;100641.03;;;20.68;64.03
23427;BME280;41148;45.420;10.952;2022-09-03T04:48:12;100657.59;;;20.63;64.34
23427;BME280;41148;45.420;10.952;2022-09-03T04:50:40;100653.03;;;20.64;64.31
23427;BME280;41148;45.420;10.952;2022-09-03T04:53:08;100656.38;;;20.54;64.87
23427;BME280;41148;45.420;10.952;2022-09-03T04:55:35;100656.63;;;20.51;65.26
23427;BME280;41148;45.420;10.952;2022-09-03T04:58:03;100655.22;;;20.58;64.74
23427;BME280;41148;45.420;10.952;2022-09-03T05:00:30;100652.50;;;20.58;64.59
23427;BME280;41148;45.420;10.952;2022-09-03T05:03:01;100653.16;;;20.62;64.21
23427;BME280;41148;45.420;10.952;2022-09-03T05:05:31;100650.34;;;20.64;64.64
23427;BME280;41148;45.420;10.952;2022-09-03T05:07:59;100647.09;;;20.58;64.92
23427;BME280;41148;45.420;10.952;2022-09-03T05:10:30;100643.63;;;20.56;64.91
23427;BME280;41148;45.420;10.952;2022-09-03T05:12:58;100650.56;;;20.61;64.66
23427;BME280;41148;45.420;10.952;2022-09-03T05:15:26;100648.06;;;20.70;64.37
23427;BME280;41148;45.420;10.952;2022-09-03T05:17:57;100651.84;;;20.80;64.34
23427;BME280;41148;45.420;10.952;2022-09-03T05:20:24;100654.44;;;20.82;64.07
23427;BME280;41148;45.420;10.952;2022-09-03T05:22:52;100651.97;;;20.79;64.15
23427;BME280;41148;45.420;10.952;2022-09-03T05:25:19;100654.91;;;20.76;63.62
23427;BME280;41148;45.420;10.952;2022-09-03T05:27:47;100665.94;;;20.73;64.15
23427;BME280;41148;45.420;10.952;2022-09-03T05:30:14;100664.31;;;20.57;64.45
23427;BME280;41148;45.420;10.952;2022-09-03T05:32:41;100670.00;;;20.40;64.50
23427;BME280;41148;45.420;10.952;2022-09-03T05:35:09;100668.31;;;20.52;64.30
23427;BME280;41148;45.420;10.952;2022-09-03T05:37:36;100666.91;;;20.72;63.81
23427;BME280;41148;45.420;10.952;2022-09-03T05:40:04;100664.53;;;20.80;62.95
23427;BME280;41148;45.420;10.952;2022-09-03T05:42:32;100666.69;;;20.88;62.33
23427;BME280;41148;45.420;10.952;2022-09-03T05:45:09;100659.31;;;20.90;63.50
23427;BME280;41148;45.420;10.952;2022-09-03T05:47:37;100665.47;;;20.92;63.02
23427;BME280;41148;45.420;10.952;2022-09-03T05:50:06;100655.84;;;21.00;63.28
23427;BME280;41148;45.420;10.952;2022-09-03T05:52:34;100649.09;;;21.19;63.06
23427;BME280;41148;45.420;10.952;2022-09-03T05:55:02;100641.59;;;21.22;61.40
23427;BME280;41148;45.420;10.952;2022-09-03T05:57:30;100633.59;;;21.21;60.88
23427;BME280;41148;45.420;10.952;2022-09-03T05:59:57;100631.75;;;21.34;60.52
23427;BME280;41148;45.420;10.952;2022-09-03T06:02:26;100635.97;;;21.38;60.67
23427;BME280;41148;45.420;10.952;2022-09-03T06:04:53;100633.06;;;21.28;60.96
23427;BME280;41148;45.420;10.952;2022-09-03T06:07:21;100628.41;;;21.18;61.46
23427;BME280;41148;45.420;10.952;2022-09-03T06:09:49;100622.44;;;21.12;61.45
23427;BME280;41148;45.420;10.952;2022-09-03T06:12:16;100620.25;;;21.30;61.10
23427;BME280;41148;45.420;10.952;2022-09-03T06:14:43;100618.09;;;21.35;61.04
23427;BME280;41148;45.420;10.952;2022-09-03T06:17:10;100623.22;;;21.51;60.83
23427;BME280;41148;45.420;10.952;2022-09-03T06:19:40;100617.22;;;21.59;60.72
23427;BME280;41148;45.420;10.952;2022-09-03T06:22:08;100620.19;;;21.56;61.20
23427;BME280;41148;45.420;10.952;2022-09-03T06:24:35;100626.47;;;21.56;61.62
23427;BME280;41148;45.420;10.952;2022-09-03T06:27:02;100619.44;;;21.54;61.70
23427;BME280;41148;45.420;10.952;2022-09-03T06:29:30;100629.59;;;21.63;61.41
23427;BME280;41148;45.420;10.952;2022-09-03T06:31:57;100629.31;;;21.55;61.94
23427;BME280;41148;45.420;10.952;2022-09-03T06:34:25;100634.31;;;21.48;62.38
23427;BME280;41148;45.420;10.952;2022-09-03T06:36:53;100637.94;;;21.36;62.75
23427;BME280;41148;45.420;10.952;2022-09-03T06:39:20;100641.06;;;21.30;63.85
23427;BME280;41148;45.420;10.952;2022-09-03T06:41:48;100635.03;;;21.26;64.99
23427;BME280;41148;45.420;10.952;2022-09-03T06:44:24;100652.16;;;21.27;65.19
23427;BME280;41148;45.420;10.952;2022-09-03T06:46:52;100643.47;;;21.34;65.14
23427;BME280;41148;45.420;10.952;2022-09-03T06:49:19;100644.53;;;21.45;64.73
23427;BME280;41148;45.420;10.952;2022-09-03T06:51:46;100653.47;;;21.58;63.94
23427;BME280;41148;45.420;10.952;2022-09-03T06:54:14;100658.44;;;21.64;63.18
23427;BME280;41148;45.420;10.952;2022-09-03T06:56:41;100654.69;;;21.78;61.72
23427;BME280;41148;45.420;10.952;2022-09-03T06:59:12;100656.63;;;21.99;59.09
23427;BME280;41148;45.420;10.952;2022-09-03T07:01:40;100651.31;;;21.98;59.37
23427;BME280;41148;45.420;10.952;2022-09-03T07:04:11;100656.97;;;22.19;59.72
23427;BME280;41148;45.420;10.952;2022-09-03T07:06:39;100663.44;;;22.29;58.42
23427;BME280;41148;45.420;10.952;2022-09-03T07:09:07;100665.22;;;22.41;59.46
23427;BME280;41148;45.420;10.952;2022-09-03T07:11:34;100652.13;;;22.46;58.56
23427;BME280;41148;45.420;10.952;2022-09-03T07:14:03;100655.38;;;22.63;57.04
23427;BME280;41148;45.420;10.952;2022-09-03T07:16:34;100657.34;;;22.61;54.30
23427;BME280;41148;45.420;10.952;2022-09-03T07:19:02;100662.19;;;22.68;54.33
23427;BME280;41148;45.420;10.952;2022-09-03T07:21:31;100656.50;;;22.60;52.89
23427;BME280;41148;45.420;10.952;2022-09-03T07:24:00;100664.34;;;22.41;53.29
23427;BME280;41148;45.420;10.952;2022-09-03T07:26:29;100652.28;;;22.56;53.86
23427;BME280;41148;45.420;10.952;2022-09-03T07:28:57;100653.16;;;22.68;52.45
23427;BME280;41148;45.420;10.952;2022-09-03T07:31:25;100648.91;;;22.88;52.88
23427;BME280;41148;45.420;10.952;2022-09-03T07:33:57;100647.28;;;22.85;51.08
23427;BME280;41148;45.420;10.952;2022-09-03T07:36:26;100651.84;;;22.84;51.84
23427;BME280;41148;45.420;10.952;2022-09-03T07:38:54;100650.13;;;22.95;51.90
23427;BME280;41148;45.420;10.952;2022-09-03T07:41:22;100654.34;;;22.88;52.30
23427;BME280;41148;45.420;10.952;2022-09-03T07:43:54;100656.94;;;22.89;52.66
23427;BME280;41148;45.420;10.952;2022-09-03T07:46:23;100661.38;;;22.90;52.59
23427;BME280;41148;45.420;10.952;2022-09-03T07:48:56;100663.22;;;23.01;52.56
23427;BME280;41148;45.420;10.952;2022-09-03T07:51:25;100670.66;;;23.10;52.49
23427;BME280;41148;45.420;10.952;2022-09-03T07:53:54;100672.13;;;23.03;52.91
23427;BME280;41148;45.420;10.952;2022-09-03T07:56:22;100666.94;;;23.11;53.43
23427;BME280;41148;45.420;10.952;2022-09-03T07:58:49;100669.78;;;23.09;53.17
23427;BME280;41148;45.420;10.952;2022-09-03T08:01:18;100680.03;;;23.17;53.10
23427;BME280;41148;45.420;10.952;2022-09-03T08:03:50;100680.91;;;23.18;53.93
23427;BME280;41148;45.420;10.952;2022-09-03T08:06:18;100686.81;;;23.34;53.59
23427;BME280;41148;45.420;10.952;2022-09-03T08:08:47;100692.50;;;23.42;52.49
23427;BME280;41148;45.420;10.952;2022-09-03T08:11:15;100692.75;;;23.39;52.57
23427;BME280;41148;45.420;10.952;2022-09-03T08:13:44;100702.88;;;23.48;52.73
23427;BME280;41148;45.420;10.952;2022-09-03T08:16:12;100708.06;;;23.51;51.69
23427;BME280;41148;45.420;10.952;2022-09-03T08:18:39;100704.75;;;23.59;52.56
23427;BME280;41148;45.420;10.952;2022-09-03T08:21:10;100702.13;;;23.68;51.09
23427;BME280;41148;45.420;10.952;2022-09-03T08:23:44;100706.81;;;23.78;50.79
23427;BME280;41148;45.420;10.952;2022-09-03T08:26:13;100707.38;;;23.92;49.58
23427;BME280;41148;45.420;10.952;2022-09-03T08:28:40;100712.63;;;23.84;49.73
23427;BME280;41148;45.420;10.952;2022-09-03T08:31:10;100709.31;;;24.13;48.26
23427;BME280;41148;45.420;10.952;2022-09-03T08:33:42;100710.69;;;24.39;47.69
23427;BME280;41148;45.420;10.952;2022-09-03T08:38:38;100730.72;;;24.70;46.63
23427;BME280;41148;45.420;10.952;2022-09-03T08:41:14;100722.81;;;24.88;44.56
23427;BME280;41148;45.420;10.952;2022-09-03T08:49:04;100714.56;;;25.20;45.15
23427;BME280;41148;45.420;10.952;2022-09-03T08:51:51;100708.78;;;25.44;44.48
23427;BME280;41148;45.420;10.952;2022-09-03T08:54:20;100714.03;;;25.36;43.80
23427;BME280;41148;45.420;10.952;2022-09-03T08:56:50;100724.28;;;25.13;43.88
23427;BME280;41148;45.420;10.952;2022-09-03T08:59:18;100732.28;;;25.76;43.35
23427;BME280;41148;45.420;10.952;2022-09-03T09:01:57;100716.84;;;26.15;42.19
23427;BME280;41148;45.420;10.952;2022-09-03T09:04:43;100724.94;;;26.36;40.60
23427;BME280;41148;45.420;10.952;2022-09-03T09:07:16;100724.03;;;26.93;39.19
23427;BME280;41148;45.420;10.952;2022-09-03T09:15:17;100719.19;;;28.34;37.23
23427;BME280;41148;45.420;10.952;2022-09-03T09:20:35;100724.66;;;27.71;38.23
23427;BME280;41148;45.420;10.952;2022-09-03T09:23:05;100714.53;;;26.88;40.11
23427;BME280;41148;45.420;10.952;2022-09-03T09:25:33;100729.41;;;26.46;41.86
23427;BME280;41148;45.420;10.952;2022-09-03T09:30:35;100731.56;;;25.74;44.00
23427;BME280;41148;45.420;10.952;2022-09-03T09:33:03;100733.34;;;25.54;44.52
23427;BME280;41148;45.420;10.952;2022-09-03T09:35:31;100738.69;;;25.25;44.50
23427;BME280;41148;45.420;10.952;2022-09-03T09:37:58;100727.50;;;25.58;44.41
23427;BME280;41148;45.420;10.952;2022-09-03T09:40:36;100728.19;;;25.51;45.18
23427;BME280;41148;45.420;10.952;2022-09-03T09:43:15;100727.72;;;25.15;45.95
23427;BME280;41148;45.420;10.952;2022-09-03T09:45:43;100733.91;;;25.17;46.23
23427;BME280;41148;45.420;10.952;2022-09-03T09:51:10;100725.38;;;25.31;46.27
23427;BME280;41148;45.420;10.952;2022-09-03T09:53:38;100728.44;;;25.48;45.48
23427;BME280;41148;45.420;10.952;2022-09-03T09:56:06;100735.41;;;25.61;44.61
23427;BME280;41148;45.420;10.952;2022-09-03T09:58:34;100729.41;;;25.67;44.76
23427;BME280;41148;45.420;10.952;2022-09-03T10:01:11;100728.38;;;25.68;43.81
23427;BME280;41148;45.420;10.952;2022-09-03T10:03:48;100729.78;;;25.63;43.93
23427;BME280;41148;45.420;10.952;2022-09-03T10:06:16;100735.53;;;25.60;44.32
23427;BME280;41148;45.420;10.952;2022-09-03T10:09:36;100732.47;;;25.84;43.36
23427;BME280;41148;45.420;10.952;2022-09-03T10:14:26;100733.31;;;25.84;44.39
23427;BME280;41148;45.420;10.952;2022-09-03T10:17:00;100737.56;;;25.58;45.75
23427;BME280;41148;45.420;10.952;2022-09-03T10:19:39;100727.03;;;25.53;45.46
23427;BME280;41148;45.420;10.952;2022-09-03T10:22:11;100736.03;;;25.44;45.73
23427;BME280;41148;45.420;10.952;2022-09-03T10:24:59;100731.53;;;25.64;45.29
23427;BME280;41148;45.420;10.952;2022-09-03T10:27:29;100737.63;;;25.77;44.24
23427;BME280;41148;45.420;10.952;2022-09-03T10:29:58;100734.53;;;25.61;43.81
23427;BME280;41148;45.420;10.952;2022-09-03T10:35:36;100728.38;;;25.68;43.46
23427;BME280;41148;45.420;10.952;2022-09-03T10:38:09;100737.16;;;25.32;44.09
23427;BME280;41148;45.420;10.952;2022-09-03T10:46:25;100729.63;;;25.55;46.52
23427;BME280;41148;45.420;10.952;2022-09-03T10:51:40;100729.38;;;25.58;46.21
23427;BME280;41148;45.420;10.952;2022-09-03T10:57:17;100722.72;;;25.51;46.13
23427;BME280;41148;45.420;10.952;2022-09-03T11:00:21;100732.34;;;25.55;45.73
23427;BME280;41148;45.420;10.952;2022-09-03T11:08:16;100716.19;;;25.32;45.87
23427;BME280;41148;45.420;10.952;2022-09-03T11:10:49;100717.38;;;25.39;46.41
23427;BME280;41148;45.420;10.952;2022-09-03T11:13:37;100718.22;;;25.71;45.33
23427;BME280;41148;45.420;10.952;2022-09-03T11:16:10;100720.84;;;25.82;44.72
23427;BME280;41148;45.420;10.952;2022-09-03T11:18:45;100715.22;;;25.74;45.68
23427;BME280;41148;45.420;10.952;2022-09-03T11:21:13;100712.63;;;25.72;46.12
23427;BME280;41148;45.420;10.952;2022-09-03T11:23:43;100704.00;;;25.77;45.18
23427;BME280;41148;45.420;10.952;2022-09-03T11:26:13;100710.56;;;25.64;46.04
23427;BME280;41148;45.420;10.952;2022-09-03T11:28:52;100709.41;;;25.67;46.79
23427;BME280;41148;45.420;10.952;2022-09-03T11:33:59;100705.88;;;25.86;46.82
23427;BME280;41148;45.420;10.952;2022-09-03T11:36:29;100701.34;;;26.06;46.06
23427;BME280;41148;45.420;10.952;2022-09-03T11:38:57;100702.91;;;25.89;46.76
23427;BME280;41148;45.420;10.952;2022-09-03T11:41:27;100711.69;;;26.12;45.93
23427;BME280;41148;45.420;10.952;2022-09-03T11:43:54;100702.34;;;26.24;45.08
23427;BME280;41148;45.420;10.952;2022-09-03T11:48:53;100698.75;;;26.14;45.94
23427;BME280;41148;45.420;10.952;2022-09-03T11:56:31;100693.00;;;26.36;45.97
23427;BME280;41148;45.420;10.952;2022-09-03T12:01:26;100696.19;;;26.41;45.52
23427;BME280;41148;45.420;10.952;2022-09-03T12:03:58;100693.88;;;26.37;45.56
23427;BME280;41148;45.420;10.952;2022-09-03T12:19:53;100665.69;;;26.36;46.93
23427;BME280;41148;45.420;10.952;2022-09-03T12:22:22;100673.63;;;26.39;46.08
23427;BME280;41148;45.420;10.952;2022-09-03T12:24:49;100667.16;;;26.50;44.87
23427;BME280;41148;45.420;10.952;2022-09-03T12:27:18;100666.13;;;26.61;44.32
23427;BME280;41148;45.420;10.952;2022-09-03T12:29:56;100668.88;;;26.51;44.59
23427;BME280;41148;45.420;10.952;2022-09-03T12:32:33;100668.16;;;26.30;45.29
23427;BME280;41148;45.420;10.952;2022-09-03T12:35:14;100662.22;;;26.34;45.98
23427;BME280;41148;45.420;10.952;2022-09-03T12:38:01;100672.03;;;26.56;44.36
23427;BME280;41148;45.420;10.952;2022-09-03T12:40:34;100681.66;;;26.50;44.15
23427;BME280;41148;45.420;10.952;2022-09-03T12:43:25;100677.22;;;26.40;45.27
23427;BME280;41148;45.420;10.952;2022-09-03T12:46:14;100666.28;;;26.40;45.21
23427;BME280;41148;45.420;10.952;2022-09-03T12:48:52;100667.69;;;26.34;45.42
23427;BME280;41148;45.420;10.952;2022-09-03T12:51:40;100663.16;;;26.44;44.94
23427;BME280;41148;45.420;10.952;2022-09-03T12:54:22;100663.56;;;26.49;44.45
23427;BME280;41148;45.420;10.952;2022-09-03T12:56:54;100654.94;;;26.35;45.19
23427;BME280;41148;45.420;10.952;2022-09-03T12:59:22;100655.38;;;26.40;45.78
23427;BME280;41148;45.420;10.952;2022-09-03T13:01:53;100643.00;;;26.55;44.78
23427;BME280;41148;45.420;10.952;2022-09-03T13:04:26;100651.19;;;26.55;45.40
23427;BME280;41148;45.420;10.952;2022-09-03T13:09:23;100659.81;;;26.31;45.85
23427;BME280;41148;45.420;10.952;2022-09-03T13:11:52;100649.59;;;26.33;45.65
23427;BME280;41148;45.420;10.952;2022-09-03T13:14:21;100644.13;;;26.33;45.36
23427;BME280;41148;45.420;10.952;2022-09-03T13:16:51;100649.59;;;26.43;44.29
23427;BME280;41148;45.420;10.952;2022-09-03T13:19:42;100643.72;;;26.28;45.78
23427;BME280;41148;45.420;10.952;2022-09-03T13:25:21;100636.94;;;26.22;47.14
23427;BME280;41148;45.420;10.952;2022-09-03T13:34:08;100637.41;;;26.28;46.94
23427;BME280;41148;45.420;10.952;2022-09-03T13:36:49;100630.09;;;26.38;46.76
23427;BME280;41148;45.420;10.952;2022-09-03T13:39:20;100622.16;;;26.35;46.57
23427;BME280;41148;45.420;10.952;2022-09-03T13:42:09;100623.13;;;26.34;46.31
23427;BME280;41148;45.420;10.952;2022-09-03T13:55:00;100616.97;;;26.41;46.15
23427;BME280;41148;45.420;10.952;2022-09-03T13:57:44;100613.41;;;26.12;46.34
23427;BME280;41148;45.420;10.952;2022-09-03T14:00:13;100618.00;;;26.21;45.93
23427;BME280;41148;45.420;10.952;2022-09-03T14:11:37;100615.56;;;25.89;46.91
23427;BME280;41148;45.420;10.952;2022-09-03T14:19:21;100606.38;;;26.00;46.84
23427;BME280;41148;45.420;10.952;2022-09-03T14:22:00;100610.53;;;26.04;47.26
23427;BME280;41148;45.420;10.952;2022-09-03T14:27:24;100604.78;;;26.07;47.88
23427;BME280;41148;45.420;10.952;2022-09-03T14:30:03;100596.00;;;26.03;47.41
23427;BME280;41148;45.420;10.952;2022-09-03T14:32:42;100593.00;;;26.06;47.89
23427;BME280;41148;45.420;10.952;2022-09-03T14:41:09;100589.97;;;26.19;49.11
23427;BME280;41148;45.420;10.952;2022-09-03T14:43:51;100586.69;;;26.15;49.60
23427;BME280;41148;45.420;10.952;2022-09-03T14:49:11;100592.00;;;25.98;50.30
23427;BME280;41148;45.420;10.952;2022-09-03T15:10:26;100589.53;;;25.75;53.49
23427;BME280;41148;45.420;10.952;2022-09-03T15:12:58;100590.97;;;25.69;53.72
23427;BME280;41148;45.420;10.952;2022-09-03T15:15:28;100581.50;;;25.74;53.43
23427;BME280;41148;45.420;10.952;2022-09-03T15:23:18;100579.38;;;25.77;53.56
23427;BME280;41148;45.420;10.952;2022-09-03T15:36:33;100590.00;;;25.71;53.90
23427;BME280;41148;45.420;10.952;2022-09-03T15:39:04;100593.56;;;25.71;54.22
23427;BME280;41148;45.420;10.952;2022-09-03T15:43:59;100585.50;;;25.69;54.79
23427;BME280;41148;45.420;10.952;2022-09-03T15:46:33;100583.78;;;25.59;54.93
23427;BME280;41148;45.420;10.952;2022-09-03T15:49:05;100590.09;;;25.69;55.12
23427;BME280;41148;45.420;10.952;2022-09-03T15:51:44;100586.63;;;25.67;54.84
23427;BME280;41148;45.420;10.952;2022-09-03T15:54:21;100586.34;;;25.60;54.95
23427;BME280;41148;45.420;10.952;2022-09-03T15:57:12;100593.25;;;25.64;54.79
23427;BME280;41148;45.420;10.952;2022-09-03T16:02:17;100589.94;;;25.51;54.90
23427;BME280;41148;45.420;10.952;2022-09-03T16:05:02;100594.22;;;25.54;55.04
23427;BME280;41148;45.420;10.952;2022-09-03T16:10:16;100598.41;;;25.58;54.91
23427;BME280;41148;45.420;10.952;2022-09-03T16:15:28;100602.09;;;25.47;54.77
23427;BME280;41148;45.420;10.952;2022-09-03T16:18:42;100606.56;;;25.38;55.17
23427;BME280;41148;45.420;10.952;2022-09-03T16:20:56;100601.97;;;25.39;55.41
23427;BME280;41148;45.420;10.952;2022-09-03T16:23:29;100602.53;;;25.43;55.81
23427;BME280;41148;45.420;10.952;2022-09-03T16:26:15;100599.53;;;25.46;55.81
23427;BME280;41148;45.420;10.952;2022-09-03T16:28:53;100592.94;;;25.48;55.41
23427;BME280;41148;45.420;10.952;2022-09-03T16:31:33;100594.06;;;25.46;55.30
23427;BME280;41148;45.420;10.952;2022-09-03T16:41:51;100595.09;;;25.54;54.82
23427;BME280;41148;45.420;10.952;2022-09-03T16:47:00;100607.00;;;25.53;54.84
23427;BME280;41148;45.420;10.952;2022-09-03T17:00:20;100611.00;;;25.30;55.65
23427;BME280;41148;45.420;10.952;2022-09-03T17:05:58;100606.66;;;25.27;55.83
23427;BME280;41148;45.420;10.952;2022-09-03T17:08:49;100605.81;;;25.27;55.87
23427;BME280;41148;45.420;10.952;2022-09-03T17:24:18;100604.19;;;25.15;56.52
23427;BME280;41148;45.420;10.952;2022-09-03T17:27:02;100608.31;;;25.09;56.23